sensor_id;sensor_type;location;lat;lon;timestamp;temperature;humidity
20574;DHT22;10445;50.216;7.912;2022-07-29T00:02:07;15.10;76.40
20574;DHT22;10445;50.216;7.912;2022-07-29T00:04:56;14.90;80.60
20574;DHT22;10445;50.216;7.912;2022-07-29T00:07:44;14.80;85.20
20574;DHT22;10445;50.216;7.912;2022-07-29T00:10:33;14.70;88.90
20574;DHT22;10445;50.216;7.912;2022-07-29T00:13:22;14.80;89.90
20574;DHT22;10445;50.216;7.912;2022-07-29T00:16:20;14.70;87.60
20574;DHT22;10445;50.216;7.912;2022-07-29T00:19:10;14.80;88.30
20574;DHT22;10445;50.216;7.912;2022-07-29T00:21:59;15.00;87.60
20574;DHT22;10445;50.216;7.912;2022-07-29T00:24:48;15.20;85.30
20574;DHT22;10445;50.216;7.912;2022-07-29T00:27:37;15.50;78.70
20574;DHT22;10445;50.216;7.912;2022-07-29T00:30:26;15.60;78.60
20574;DHT22;10445;50.216;7.912;2022-07-29T00:33:16;15.60;77.40
20574;DHT22;10445;50.216;7.912;2022-07-29T00:36:05;15.70;72.90
20574;DHT22;10445;50.216;7.912;2022-07-29T00:38:53;15.80;70.90
20574;DHT22;10445;50.216;7.912;2022-07-29T00:41:42;15.80;69.00
20574;DHT22;10445;50.216;7.912;2022-07-29T00:44:32;15.80;64.60
20574;DHT22;10445;50.216;7.912;2022-07-29T00:47:24;15.90;69.30
20574;DHT22;10445;50.216;7.912;2022-07-29T00:50:14;15.90;68.30
20574;DHT22;10445;50.216;7.912;2022-07-29T00:53:03;16.10;66.70
20574;DHT22;10445;50.216;7.912;2022-07-29T00:55:53;16.10;64.40
20574;DHT22;10445;50.216;7.912;2022-07-29T00:58:43;16.10;65.90
20574;DHT22;10445;50.216;7.912;2022-07-29T01:01:32;16.10;63.20
20574;DHT22;10445;50.216;7.912;2022-07-29T01:04:21;16.20;62.10
20574;DHT22;10445;50.216;7.912;2022-07-29T01:07:12;16.30;59.10
20574;DHT22;10445;50.216;7.912;2022-07-29T01:10:02;16.30;59.30
20574;DHT22;10445;50.216;7.912;2022-07-29T01:12:53;16.30;58.30
20574;DHT22;10445;50.216;7.912;2022-07-29T01:15:46;16.20;57.80
20574;DHT22;10445;50.216;7.912;2022-07-29T01:18:40;16.30;54.70
20574;DHT22;10445;50.216;7.912;2022-07-29T01:21:50;16.40;52.90
20574;DHT22;10445;50.216;7.912;2022-07-29T01:25:13;16.60;50.60
20574;DHT22;10445;50.216;7.912;2022-07-29T01:31:38;16.70;50.40
20574;DHT22;10445;50.216;7.912;2022-07-29T01:34:50;16.60;51.90
20574;DHT22;10445;50.216;7.912;2022-07-29T01:37:45;16.70;50.10
20574;DHT22;10445;50.216;7.912;2022-07-29T01:40:39;16.70;51.90
20574;DHT22;10445;50.216;7.912;2022-07-29T01:43:35;16.60;54.20
20574;DHT22;10445;50.216;7.912;2022-07-29T01:46:29;16.60;53.20
20574;DHT22;10445;50.216;7.912;2022-07-29T01:49:24;16.50;54.10
20574;DHT22;10445;50.216;7.912;2022-07-29T01:52:20;16.50;55.20
20574;DHT22;10445;50.216;7.912;2022-07-29T01:55:13;16.50;53.90
20574;DHT22;10445;50.216;7.912;2022-07-29T01:58:05;16.50;55.60
20574;DHT22;10445;50.216;7.912;2022-07-29T02:00:54;16.50;53.10
20574;DHT22;10445;50.216;7.912;2022-07-29T02:03:45;16.50;52.90
20574;DHT22;10445;50.216;7.912;2022-07-29T02:06:38;16.50;51.70
20574;DHT22;10445;50.216;7.912;2022-07-29T02:09:28;16.60;50.70
20574;DHT22;10445;50.216;7.912;2022-07-29T02:12:19;16.60;49.30
20574;DHT22;10445;50.216;7.912;2022-07-29T02:15:09;16.60;45.90
20574;DHT22;10445;50.216;7.912;2022-07-29T02:18:05;16.80;43.50
20574;DHT22;10445;50.216;7.912;2022-07-29T02:20:56;16.90;43.50
20574;DHT22;10445;50.216;7.912;2022-07-29T02:23:49;16.90;43.70
20574;DHT22;10445;50.216;7.912;2022-07-29T02:26:40;16.90;43.70
20574;DHT22;10445;50.216;7.912;2022-07-29T02:29:31;16.90;45.00
20574;DHT22;10445;50.216;7.912;2022-07-29T02:32:21;16.80;46.00
20574;DHT22;10445;50.216;7.912;2022-07-29T02:35:13;16.70;47.80
20574;DHT22;10445;50.216;7.912;2022-07-29T02:38:03;16.60;48.80
20574;DHT22;10445;50.216;7.912;2022-07-29T02:41:12;16.50;51.10
20574;DHT22;10445;50.216;7.912;2022-07-29T02:44:05;16.40;53.50
20574;DHT22;10445;50.216;7.912;2022-07-29T02:47:01;16.30;55.10
20574;DHT22;10445;50.216;7.912;2022-07-29T02:49:55;16.20;56.10
20574;DHT22;10445;50.216;7.912;2022-07-29T02:52:51;16.20;57.50
20574;DHT22;10445;50.216;7.912;2022-07-29T02:55:46;16.20;59.60
20574;DHT22;10445;50.216;7.912;2022-07-29T02:58:41;16.10;62.90
20574;DHT22;10445;50.216;7.912;2022-07-29T03:01:32;16.00;64.80
20574;DHT22;10445;50.216;7.912;2022-07-29T03:04:24;16.00;66.50
20574;DHT22;10445;50.216;7.912;2022-07-29T03:07:18;15.90;64.90
20574;DHT22;10445;50.216;7.912;2022-07-29T03:10:08;15.90;65.00
20574;DHT22;10445;50.216;7.912;2022-07-29T03:13:00;15.90;64.50
20574;DHT22;10445;50.216;7.912;2022-07-29T03:15:51;15.80;60.40
20574;DHT22;10445;50.216;7.912;2022-07-29T03:18:40;15.90;62.20
20574;DHT22;10445;50.216;7.912;2022-07-29T03:21:29;15.90;61.50
20574;DHT22;10445;50.216;7.912;2022-07-29T03:24:27;15.90;61.10
20574;DHT22;10445;50.216;7.912;2022-07-29T03:27:16;15.90;62.30
20574;DHT22;10445;50.216;7.912;2022-07-29T03:30:06;15.80;64.10
20574;DHT22;10445;50.216;7.912;2022-07-29T03:32:57;15.80;63.30
20574;DHT22;10445;50.216;7.912;2022-07-29T03:35:46;15.80;61.20
20574;DHT22;10445;50.216;7.912;2022-07-29T03:38:35;15.70;60.00
20574;DHT22;10445;50.216;7.912;2022-07-29T03:41:25;15.70;53.50
20574;DHT22;10445;50.216;7.912;2022-07-29T03:44:15;15.80;54.50
20574;DHT22;10445;50.216;7.912;2022-07-29T03:47:06;15.80;57.30
20574;DHT22;10445;50.216;7.912;2022-07-29T03:50:02;15.80;57.20
20574;DHT22;10445;50.216;7.912;2022-07-29T03:52:57;15.80;58.90
20574;DHT22;10445;50.216;7.912;2022-07-29T03:55:49;15.70;59.60
20574;DHT22;10445;50.216;7.912;2022-07-29T03:58:39;15.70;60.60
20574;DHT22;10445;50.216;7.912;2022-07-29T04:01:28;15.70;61.70
20574;DHT22;10445;50.216;7.912;2022-07-29T04:04:17;15.60;63.30
20574;DHT22;10445;50.216;7.912;2022-07-29T04:07:11;15.50;61.70
20574;DHT22;10445;50.216;7.912;2022-07-29T04:10:00;15.50;62.30
20574;DHT22;10445;50.216;7.912;2022-07-29T04:12:49;15.50;64.30
20574;DHT22;10445;50.216;7.912;2022-07-29T04:15:38;15.50;65.40
20574;DHT22;10445;50.216;7.912;2022-07-29T04:18:27;15.40;66.70
20574;DHT22;10445;50.216;7.912;2022-07-29T04:21:15;15.30;65.90
20574;DHT22;10445;50.216;7.912;2022-07-29T04:24:06;15.30;65.70
20574;DHT22;10445;50.216;7.912;2022-07-29T04:26:55;15.20;64.90
20574;DHT22;10445;50.216;7.912;2022-07-29T04:29:44;15.20;65.30
20574;DHT22;10445;50.216;7.912;2022-07-29T04:32:43;15.20;66.50
20574;DHT22;10445;50.216;7.912;2022-07-29T04:35:34;15.30;67.20
20574;DHT22;10445;50.216;7.912;2022-07-29T04:38:35;15.30;68.00
20574;DHT22;10445;50.216;7.912;2022-07-29T04:41:26;15.30;67.70
20574;DHT22;10445;50.216;7.912;2022-07-29T04:44:19;15.30;68.30
20574;DHT22;10445;50.216;7.912;2022-07-29T04:47:14;15.30;67.80
20574;DHT22;10445;50.216;7.912;2022-07-29T04:50:04;15.30;68.10
20574;DHT22;10445;50.216;7.912;2022-07-29T04:52:54;15.30;67.90
20574;DHT22;10445;50.216;7.912;2022-07-29T04:55:43;15.30;67.40
20574;DHT22;10445;50.216;7.912;2022-07-29T04:58:35;15.30;66.70
20574;DHT22;10445;50.216;7.912;2022-07-29T05:01:24;15.40;67.80
20574;DHT22;10445;50.216;7.912;2022-07-29T05:04:13;15.40;69.30
20574;DHT22;10445;50.216;7.912;2022-07-29T05:07:03;15.40;68.20
20574;DHT22;10445;50.216;7.912;2022-07-29T05:09:51;15.40;68.30
20574;DHT22;10445;50.216;7.912;2022-07-29T05:12:40;15.50;68.80
20574;DHT22;10445;50.216;7.912;2022-07-29T05:15:31;15.50;67.90
20574;DHT22;10445;50.216;7.912;2022-07-29T05:18:19;15.50;68.70
20574;DHT22;10445;50.216;7.912;2022-07-29T05:21:12;15.60;68.80
20574;DHT22;10445;50.216;7.912;2022-07-29T05:24:01;15.60;70.00
20574;DHT22;10445;50.216;7.912;2022-07-29T05:26:50;15.60;70.90
20574;DHT22;10445;50.216;7.912;2022-07-29T05:29:38;15.70;72.00
20574;DHT22;10445;50.216;7.912;2022-07-29T05:32:32;15.80;71.40
20574;DHT22;10445;50.216;7.912;2022-07-29T05:35:21;15.90;70.40
20574;DHT22;10445;50.216;7.912;2022-07-29T05:38:10;16.00;69.80
20574;DHT22;10445;50.216;7.912;2022-07-29T05:40:59;16.10;70.00
20574;DHT22;10445;50.216;7.912;2022-07-29T05:43:47;16.20;68.80
20574;DHT22;10445;50.216;7.912;2022-07-29T05:46:36;16.40;68.70
20574;DHT22;10445;50.216;7.912;2022-07-29T05:49:26;16.50;65.90
20574;DHT22;10445;50.216;7.912;2022-07-29T05:52:15;16.70;64.70
20574;DHT22;10445;50.216;7.912;2022-07-29T05:55:05;16.90;64.60
20574;DHT22;10445;50.216;7.912;2022-07-29T05:57:53;17.00;63.90
20574;DHT22;10445;50.216;7.912;2022-07-29T06:00:42;17.10;61.00
20574;DHT22;10445;50.216;7.912;2022-07-29T06:03:31;17.00;63.10
20574;DHT22;10445;50.216;7.912;2022-07-29T06:06:21;16.90;64.40
20574;DHT22;10445;50.216;7.912;2022-07-29T06:09:10;16.80;65.60
20574;DHT22;10445;50.216;7.912;2022-07-29T06:12:00;16.90;67.40
20574;DHT22;10445;50.216;7.912;2022-07-29T06:14:49;17.00;68.10
20574;DHT22;10445;50.216;7.912;2022-07-29T06:17:40;17.20;65.70
20574;DHT22;10445;50.216;7.912;2022-07-29T06:20:47;17.30;65.70
20574;DHT22;10445;50.216;7.912;2022-07-29T06:23:37;17.40;65.70
20574;DHT22;10445;50.216;7.912;2022-07-29T06:26:26;17.60;64.80
20574;DHT22;10445;50.216;7.912;2022-07-29T06:29:18;17.80;67.20
20574;DHT22;10445;50.216;7.912;2022-07-29T06:32:06;18.10;62.60
20574;DHT22;10445;50.216;7.912;2022-07-29T06:34:56;18.20;57.50
20574;DHT22;10445;50.216;7.912;2022-07-29T06:38:05;18.40;55.90
20574;DHT22;10445;50.216;7.912;2022-07-29T06:41:15;18.70;56.60
20574;DHT22;10445;50.216;7.912;2022-07-29T06:44:04;18.90;50.90
20574;DHT22;10445;50.216;7.912;2022-07-29T06:46:53;19.00;45.50
20574;DHT22;10445;50.216;7.912;2022-07-29T06:49:42;18.90;43.50
20574;DHT22;10445;50.216;7.912;2022-07-29T06:52:30;18.90;42.10
20574;DHT22;10445;50.216;7.912;2022-07-29T06:55:19;19.00;41.40
20574;DHT22;10445;50.216;7.912;2022-07-29T06:58:13;18.90;41.90
20574;DHT22;10445;50.216;7.912;2022-07-29T07:01:04;18.90;42.90
20574;DHT22;10445;50.216;7.912;2022-07-29T07:03:53;19.00;41.40
20574;DHT22;10445;50.216;7.912;2022-07-29T07:06:41;19.00;40.30
20574;DHT22;10445;50.216;7.912;2022-07-29T07:09:30;19.00;41.30
20574;DHT22;10445;50.216;7.912;2022-07-29T07:12:26;19.10;44.00
20574;DHT22;10445;50.216;7.912;2022-07-29T07:15:16;19.20;40.40
20574;DHT22;10445;50.216;7.912;2022-07-29T07:18:25;19.30;42.20
20574;DHT22;10445;50.216;7.912;2022-07-29T07:21:13;19.60;37.50
20574;DHT22;10445;50.216;7.912;2022-07-29T07:24:06;19.90;42.00
20574;DHT22;10445;50.216;7.912;2022-07-29T07:26:55;20.00;36.90
20574;DHT22;10445;50.216;7.912;2022-07-29T07:29:43;20.10;34.60
20574;DHT22;10445;50.216;7.912;2022-07-29T07:32:33;20.00;32.60
20574;DHT22;10445;50.216;7.912;2022-07-29T07:35:22;19.90;31.50
20574;DHT22;10445;50.216;7.912;2022-07-29T07:38:11;19.90;31.90
20574;DHT22;10445;50.216;7.912;2022-07-29T07:41:00;19.90;28.50
20574;DHT22;10445;50.216;7.912;2022-07-29T07:43:49;19.90;29.80
20574;DHT22;10445;50.216;7.912;2022-07-29T07:46:38;19.90;26.70
20574;DHT22;10445;50.216;7.912;2022-07-29T07:49:29;20.00;27.00
20574;DHT22;10445;50.216;7.912;2022-07-29T07:52:20;19.90;20.90
20574;DHT22;10445;50.216;7.912;2022-07-29T07:55:09;20.00;24.10
20574;DHT22;10445;50.216;7.912;2022-07-29T07:57:58;20.20;22.90
20574;DHT22;10445;50.216;7.912;2022-07-29T08:00:47;20.40;18.50
20574;DHT22;10445;50.216;7.912;2022-07-29T08:03:36;20.40;17.50
20574;DHT22;10445;50.216;7.912;2022-07-29T08:06:26;20.20;16.90
20574;DHT22;10445;50.216;7.912;2022-07-29T08:09:15;20.10;16.20
20574;DHT22;10445;50.216;7.912;2022-07-29T08:12:15;20.20;17.30
20574;DHT22;10445;50.216;7.912;2022-07-29T08:15:05;20.30;15.50
20574;DHT22;10445;50.216;7.912;2022-07-29T08:17:54;20.50;13.50
20574;DHT22;10445;50.216;7.912;2022-07-29T08:20:43;20.60;10.90
20574;DHT22;10445;50.216;7.912;2022-07-29T08:23:33;20.70;9.90
20574;DHT22;10445;50.216;7.912;2022-07-29T08:26:34;20.80;9.10
20574;DHT22;10445;50.216;7.912;2022-07-29T08:29:23;20.80;5.50
20574;DHT22;10445;50.216;7.912;2022-07-29T08:32:12;20.90;9.20
20574;DHT22;10445;50.216;7.912;2022-07-29T08:35:22;21.10;4.90
20574;DHT22;10445;50.216;7.912;2022-07-29T08:38:11;21.20;5.00
20574;DHT22;10445;50.216;7.912;2022-07-29T08:41:01;21.60;4.70
20574;DHT22;10445;50.216;7.912;2022-07-29T08:43:50;21.90;1.00
20574;DHT22;10445;50.216;7.912;2022-07-29T08:46:39;21.90;1.00
20574;DHT22;10445;50.216;7.912;2022-07-29T08:49:28;21.70;1.00
20574;DHT22;10445;50.216;7.912;2022-07-29T08:52:17;21.90;1.00
20574;DHT22;10445;50.216;7.912;2022-07-29T08:55:07;22.10;1.00
20574;DHT22;10445;50.216;7.912;2022-07-29T08:57:58;22.10;1.00
20574;DHT22;10445;50.216;7.912;2022-07-29T09:00:50;22.10;1.00
20574;DHT22;10445;50.216;7.912;2022-07-29T09:03:42;21.90;1.00
20574;DHT22;10445;50.216;7.912;2022-07-29T09:06:34;21.90;1.00
20574;DHT22;10445;50.216;7.912;2022-07-29T09:09:25;22.00;1.00
20574;DHT22;10445;50.216;7.912;2022-07-29T09:12:14;22.00;1.00
20574;DHT22;10445;50.216;7.912;2022-07-29T09:15:17;22.00;1.00
20574;DHT22;10445;50.216;7.912;2022-07-29T09:18:06;22.00;1.00
20574;DHT22;10445;50.216;7.912;2022-07-29T09:21:17;22.00;1.00
20574;DHT22;10445;50.216;7.912;2022-07-29T09:24:26;22.00;1.00
20574;DHT22;10445;50.216;7.912;2022-07-29T09:27:20;22.00;1.00
20574;DHT22;10445;50.216;7.912;2022-07-29T09:30:10;22.10;1.00
20574;DHT22;10445;50.216;7.912;2022-07-29T09:33:02;22.10;1.00
20574;DHT22;10445;50.216;7.912;2022-07-29T09:35:59;22.20;1.00
20574;DHT22;10445;50.216;7.912;2022-07-29T09:38:57;22.30;1.00
20574;DHT22;10445;50.216;7.912;2022-07-29T09:41:48;22.50;1.00
20574;DHT22;10445;50.216;7.912;2022-07-29T09:44:42;22.70;1.00
20574;DHT22;10445;50.216;7.912;2022-07-29T09:47:41;23.10;1.00
20574;DHT22;10445;50.216;7.912;2022-07-29T09:50:38;23.60;1.00
20574;DHT22;10445;50.216;7.912;2022-07-29T09:53:30;23.90;1.00
20574;DHT22;10445;50.216;7.912;2022-07-29T09:56:20;23.90;1.00
20574;DHT22;10445;50.216;7.912;2022-07-29T09:59:10;24.00;1.00
20574;DHT22;10445;50.216;7.912;2022-07-29T10:01:59;24.10;1.00
20574;DHT22;10445;50.216;7.912;2022-07-29T10:04:48;24.00;1.00
20574;DHT22;10445;50.216;7.912;2022-07-29T10:07:49;23.80;1.00
20574;DHT22;10445;50.216;7.912;2022-07-29T10:10:42;23.80;1.00
20574;DHT22;10445;50.216;7.912;2022-07-29T10:13:31;24.00;1.00
20574;DHT22;10445;50.216;7.912;2022-07-29T10:16:19;24.10;1.00
20574;DHT22;10445;50.216;7.912;2022-07-29T10:19:09;24.40;1.00
20574;DHT22;10445;50.216;7.912;2022-07-29T10:21:58;24.50;1.00
20574;DHT22;10445;50.216;7.912;2022-07-29T10:24:49;24.30;1.00
20574;DHT22;10445;50.216;7.912;2022-07-29T10:27:37;24.10;1.00
20574;DHT22;10445;50.216;7.912;2022-07-29T10:30:27;24.00;1.00
20574;DHT22;10445;50.216;7.912;2022-07-29T10:33:32;23.90;1.00
20574;DHT22;10445;50.216;7.912;2022-07-29T10:36:38;24.00;1.00
20574;DHT22;10445;50.216;7.912;2022-07-29T10:39:41;24.10;1.00
20574;DHT22;10445;50.216;7.912;2022-07-29T10:42:40;24.20;1.00
20574;DHT22;10445;50.216;7.912;2022-07-29T10:45:31;24.20;1.00
20574;DHT22;10445;50.216;7.912;2022-07-29T10:48:21;24.30;1.00
20574;DHT22;10445;50.216;7.912;2022-07-29T10:51:10;24.30;1.00
20574;DHT22;10445;50.216;7.912;2022-07-29T10:53:59;24.30;1.00
20574;DHT22;10445;50.216;7.912;2022-07-29T10:56:53;24.30;1.00
20574;DHT22;10445;50.216;7.912;2022-07-29T10:59:44;24.30;1.00
20574;DHT22;10445;50.216;7.912;2022-07-29T11:02:44;24.30;1.00
20574;DHT22;10445;50.216;7.912;2022-07-29T11:05:56;24.30;1.00
20574;DHT22;10445;50.216;7.912;2022-07-29T11:09:15;24.30;1.00
20574;DHT22;10445;50.216;7.912;2022-07-29T11:15:53;24.30;1.00
20574;DHT22;10445;50.216;7.912;2022-07-29T11:22:32;24.20;1.00
20574;DHT22;10445;50.216;7.912;2022-07-29T11:25:22;24.50;1.00
20574;DHT22;10445;50.216;7.912;2022-07-29T11:28:31;24.80;1.00
20574;DHT22;10445;50.216;7.912;2022-07-29T11:31:36;25.00;1.00
20574;DHT22;10445;50.216;7.912;2022-07-29T11:34:27;25.20;1.00
20574;DHT22;10445;50.216;7.912;2022-07-29T11:37:21;25.30;1.00
20574;DHT22;10445;50.216;7.912;2022-07-29T11:40:16;25.40;1.00
20574;DHT22;10445;50.216;7.912;2022-07-29T11:43:07;25.30;1.00
20574;DHT22;10445;50.216;7.912;2022-07-29T11:46:00;25.30;1.00
20574;DHT22;10445;50.216;7.912;2022-07-29T11:48:51;25.40;1.00
20574;DHT22;10445;50.216;7.912;2022-07-29T11:51:41;25.60;1.00
20574;DHT22;10445;50.216;7.912;2022-07-29T11:54:44;25.80;1.00
20574;DHT22;10445;50.216;7.912;2022-07-29T11:57:48;25.90;1.00
20574;DHT22;10445;50.216;7.912;2022-07-29T12:00:50;25.90;1.00
20574;DHT22;10445;50.216;7.912;2022-07-29T12:03:42;25.70;1.00
20574;DHT22;10445;50.216;7.912;2022-07-29T12:06:32;25.50;1.00
20574;DHT22;10445;50.216;7.912;2022-07-29T12:09:22;25.70;1.00
20574;DHT22;10445;50.216;7.912;2022-07-29T12:12:16;26.00;1.00
20574;DHT22;10445;50.216;7.912;2022-07-29T12:15:15;26.10;1.00
20574;DHT22;10445;50.216;7.912;2022-07-29T12:18:15;26.40;1.00
20574;DHT22;10445;50.216;7.912;2022-07-29T12:21:05;26.70;1.00
20574;DHT22;10445;50.216;7.912;2022-07-29T12:24:00;26.70;1.00
20574;DHT22;10445;50.216;7.912;2022-07-29T12:26:58;26.60;1.00
20574;DHT22;10445;50.216;7.912;2022-07-29T12:29:55;27.10;1.00
20574;DHT22;10445;50.216;7.912;2022-07-29T12:32:46;27.50;1.00
20574;DHT22;10445;50.216;7.912;2022-07-29T12:35:35;27.50;1.00
20574;DHT22;10445;50.216;7.912;2022-07-29T12:38:25;27.00;1.00
20574;DHT22;10445;50.216;7.912;2022-07-29T12:41:15;26.60;1.00
20574;DHT22;10445;50.216;7.912;2022-07-29T12:44:04;26.60;1.00
20574;DHT22;10445;50.216;7.912;2022-07-29T12:47:02;26.50;1.00
20574;DHT22;10445;50.216;7.912;2022-07-29T12:49:52;26.20;1.00
20574;DHT22;10445;50.216;7.912;2022-07-29T12:53:08;26.00;1.00
20574;DHT22;10445;50.216;7.912;2022-07-29T12:55:58;25.90;1.00
20574;DHT22;10445;50.216;7.912;2022-07-29T12:59:13;25.90;1.00
20574;DHT22;10445;50.216;7.912;2022-07-29T13:02:02;25.80;1.00
20574;DHT22;10445;50.216;7.912;2022-07-29T13:04:55;25.70;1.00
20574;DHT22;10445;50.216;7.912;2022-07-29T13:07:45;25.60;1.00
20574;DHT22;10445;50.216;7.912;2022-07-29T13:10:43;25.80;1.00
20574;DHT22;10445;50.216;7.912;2022-07-29T13:13:32;26.00;1.00
20574;DHT22;10445;50.216;7.912;2022-07-29T13:16:22;26.20;1.00
20574;DHT22;10445;50.216;7.912;2022-07-29T13:19:12;26.20;1.00
20574;DHT22;10445;50.216;7.912;2022-07-29T13:22:02;26.10;1.00
20574;DHT22;10445;50.216;7.912;2022-07-29T13:24:52;25.90;1.00
20574;DHT22;10445;50.216;7.912;2022-07-29T13:27:41;25.70;1.00
20574;DHT22;10445;50.216;7.912;2022-07-29T13:30:33;25.60;1.00
20574;DHT22;10445;50.216;7.912;2022-07-29T13:33:32;25.60;1.00
20574;DHT22;10445;50.216;7.912;2022-07-29T13:36:21;25.80;1.00
20574;DHT22;10445;50.216;7.912;2022-07-29T13:39:09;25.90;1.00
20574;DHT22;10445;50.216;7.912;2022-07-29T13:41:58;26.10;1.00
20574;DHT22;10445;50.216;7.912;2022-07-29T13:44:47;26.00;1.00
20574;DHT22;10445;50.216;7.912;2022-07-29T13:47:38;26.00;1.00
20574;DHT22;10445;50.216;7.912;2022-07-29T13:50:36;25.80;1.00
20574;DHT22;10445;50.216;7.912;2022-07-29T13:53:25;25.70;1.00
20574;DHT22;10445;50.216;7.912;2022-07-29T13:56:15;25.00;1.00
20574;DHT22;10445;50.216;7.912;2022-07-29T13:59:03;24.30;1.00
20574;DHT22;10445;50.216;7.912;2022-07-29T14:01:52;24.00;1.00
20574;DHT22;10445;50.216;7.912;2022-07-29T14:04:41;23.90;1.00
20574;DHT22;10445;50.216;7.912;2022-07-29T14:07:32;23.40;1.00
20574;DHT22;10445;50.216;7.912;2022-07-29T14:10:20;23.20;1.00
20574;DHT22;10445;50.216;7.912;2022-07-29T14:13:09;23.20;1.00
20574;DHT22;10445;50.216;7.912;2022-07-29T14:16:11;23.30;1.00
20574;DHT22;10445;50.216;7.912;2022-07-29T14:19:00;23.40;1.00
20574;DHT22;10445;50.216;7.912;2022-07-29T14:21:49;23.30;1.00
20574;DHT22;10445;50.216;7.912;2022-07-29T14:24:39;23.40;1.00
20574;DHT22;10445;50.216;7.912;2022-07-29T14:27:29;23.50;1.00
20574;DHT22;10445;50.216;7.912;2022-07-29T14:30:24;23.80;1.00
20574;DHT22;10445;50.216;7.912;2022-07-29T14:33:13;24.10;1.00
20574;DHT22;10445;50.216;7.912;2022-07-29T14:36:01;24.30;1.00
20574;DHT22;10445;50.216;7.912;2022-07-29T14:38:50;24.50;1.00
20574;DHT22;10445;50.216;7.912;2022-07-29T14:41:40;24.60;1.00
20574;DHT22;10445;50.216;7.912;2022-07-29T14:44:29;24.60;1.00
20574;DHT22;10445;50.216;7.912;2022-07-29T14:47:19;24.60;1.00
20574;DHT22;10445;50.216;7.912;2022-07-29T14:50:09;24.50;1.00
20574;DHT22;10445;50.216;7.912;2022-07-29T14:52:58;24.50;1.00
20574;DHT22;10445;50.216;7.912;2022-07-29T14:55:46;24.50;1.00
20574;DHT22;10445;50.216;7.912;2022-07-29T14:58:37;24.50;1.00
20574;DHT22;10445;50.216;7.912;2022-07-29T15:01:37;24.40;1.00
20574;DHT22;10445;50.216;7.912;2022-07-29T15:04:26;24.40;1.00
20574;DHT22;10445;50.216;7.912;2022-07-29T15:07:15;24.60;1.00
20574;DHT22;10445;50.216;7.912;2022-07-29T15:10:04;24.90;1.00
20574;DHT22;10445;50.216;7.912;2022-07-29T15:12:54;25.00;1.00
20574;DHT22;10445;50.216;7.912;2022-07-29T15:15:44;25.10;1.00
20574;DHT22;10445;50.216;7.912;2022-07-29T15:18:33;25.10;1.00
20574;DHT22;10445;50.216;7.912;2022-07-29T15:21:22;25.20;1.00
20574;DHT22;10445;50.216;7.912;2022-07-29T15:24:11;25.40;1.00
20574;DHT22;10445;50.216;7.912;2022-07-29T15:26:59;25.50;1.00
20574;DHT22;10445;50.216;7.912;2022-07-29T15:29:48;25.50;1.00
20574;DHT22;10445;50.216;7.912;2022-07-29T15:32:38;25.30;1.00
20574;DHT22;10445;50.216;7.912;2022-07-29T15:35:27;25.10;1.00
20574;DHT22;10445;50.216;7.912;2022-07-29T15:38:16;24.80;1.00
20574;DHT22;10445;50.216;7.912;2022-07-29T15:41:05;24.50;1.00
20574;DHT22;10445;50.216;7.912;2022-07-29T15:43:54;24.30;1.00
20574;DHT22;10445;50.216;7.912;2022-07-29T15:46:42;24.20;1.00
20574;DHT22;10445;50.216;7.912;2022-07-29T15:49:50;24.10;1.00
20574;DHT22;10445;50.216;7.912;2022-07-29T15:52:39;24.00;1.00
20574;DHT22;10445;50.216;7.912;2022-07-29T15:55:28;23.90;1.00
20574;DHT22;10445;50.216;7.912;2022-07-29T15:58:16;23.80;1.00
20574;DHT22;10445;50.216;7.912;2022-07-29T16:01:05;23.10;1.00
20574;DHT22;10445;50.216;7.912;2022-07-29T16:03:54;22.20;4.70
20574;DHT22;10445;50.216;7.912;2022-07-29T16:06:46;21.40;26.60
20574;DHT22;10445;50.216;7.912;2022-07-29T16:09:35;20.70;47.40
20574;DHT22;10445;50.216;7.912;2022-07-29T16:12:24;20.30;60.10
20574;DHT22;10445;50.216;7.912;2022-07-29T16:15:13;20.00;69.50
20574;DHT22;10445;50.216;7.912;2022-07-29T16:18:02;19.80;76.00
20574;DHT22;10445;50.216;7.912;2022-07-29T16:20:51;19.60;72.80
20574;DHT22;10445;50.216;7.912;2022-07-29T16:23:41;19.50;73.70
20574;DHT22;10445;50.216;7.912;2022-07-29T16:26:31;19.40;77.50
20574;DHT22;10445;50.216;7.912;2022-07-29T16:29:20;19.40;79.70
20574;DHT22;10445;50.216;7.912;2022-07-29T16:32:09;19.40;77.20
20574;DHT22;10445;50.216;7.912;2022-07-29T16:34:58;19.30;72.70
20574;DHT22;10445;50.216;7.912;2022-07-29T16:37:48;19.20;74.20
20574;DHT22;10445;50.216;7.912;2022-07-29T16:40:38;19.30;73.30
20574;DHT22;10445;50.216;7.912;2022-07-29T16:43:27;19.40;69.70
20574;DHT22;10445;50.216;7.912;2022-07-29T16:46:16;19.50;69.00
20574;DHT22;10445;50.216;7.912;2022-07-29T16:49:06;19.60;67.90
20574;DHT22;10445;50.216;7.912;2022-07-29T16:51:55;19.80;68.70
20574;DHT22;10445;50.216;7.912;2022-07-29T16:54:45;19.90;68.60
20574;DHT22;10445;50.216;7.912;2022-07-29T16:57:35;20.00;66.70
20574;DHT22;10445;50.216;7.912;2022-07-29T17:00:23;20.00;59.00
20574;DHT22;10445;50.216;7.912;2022-07-29T17:03:12;20.00;56.60
20574;DHT22;10445;50.216;7.912;2022-07-29T17:06:01;20.00;59.50
20574;DHT22;10445;50.216;7.912;2022-07-29T17:08:49;20.10;59.40
20574;DHT22;10445;50.216;7.912;2022-07-29T17:11:38;20.20;60.30
20574;DHT22;10445;50.216;7.912;2022-07-29T17:14:42;20.30;66.20
20574;DHT22;10445;50.216;7.912;2022-07-29T17:17:31;20.30;64.90
20574;DHT22;10445;50.216;7.912;2022-07-29T17:20:40;20.30;66.00
20574;DHT22;10445;50.216;7.912;2022-07-29T17:23:29;20.40;69.60
20574;DHT22;10445;50.216;7.912;2022-07-29T17:26:19;20.40;70.20
20574;DHT22;10445;50.216;7.912;2022-07-29T17:29:08;20.40;65.80
20574;DHT22;10445;50.216;7.912;2022-07-29T17:31:58;20.50;59.20
20574;DHT22;10445;50.216;7.912;2022-07-29T17:34:47;20.50;60.10
20574;DHT22;10445;50.216;7.912;2022-07-29T17:37:35;20.60;65.10
20574;DHT22;10445;50.216;7.912;2022-07-29T17:40:24;20.60;71.90
20574;DHT22;10445;50.216;7.912;2022-07-29T17:43:13;20.50;73.30
20574;DHT22;10445;50.216;7.912;2022-07-29T17:46:02;20.50;73.60
20574;DHT22;10445;50.216;7.912;2022-07-29T17:48:52;20.40;71.90
20574;DHT22;10445;50.216;7.912;2022-07-29T17:51:42;20.40;72.70
20574;DHT22;10445;50.216;7.912;2022-07-29T17:54:30;20.40;74.20
20574;DHT22;10445;50.216;7.912;2022-07-29T17:57:19;20.30;74.30
20574;DHT22;10445;50.216;7.912;2022-07-29T18:00:08;20.30;67.70
20574;DHT22;10445;50.216;7.912;2022-07-29T18:02:57;20.30;59.20
20574;DHT22;10445;50.216;7.912;2022-07-29T18:05:47;20.40;60.80
20574;DHT22;10445;50.216;7.912;2022-07-29T18:08:37;20.40;66.20
20574;DHT22;10445;50.216;7.912;2022-07-29T18:11:26;20.40;65.40
20574;DHT22;10445;50.216;7.912;2022-07-29T18:14:16;20.40;61.70
20574;DHT22;10445;50.216;7.912;2022-07-29T18:17:05;20.40;59.90
20574;DHT22;10445;50.216;7.912;2022-07-29T18:19:54;20.40;57.20
20574;DHT22;10445;50.216;7.912;2022-07-29T18:22:44;20.50;47.80
20574;DHT22;10445;50.216;7.912;2022-07-29T18:25:34;20.50;50.30